This is the latest recevied weather packets stored in our database for station/object HR1LRC-21. If no packets are shown the sender has not sent any weather packets the latest 10 day(s).
| Time | Temp. | Humidity | Pressure | Rain* | Wind** | Luminosity | Snow |
|---|---|---|---|---|---|---|---|
| 1777654447 | 24.44° C | 43% | 1012 hPa | 0 mm | - | - | - |
| 1777653846 | 24.44° C | 43% | 1012 hPa | 0 mm | - | - | - |
| 1777653246 | 24.44° C | 43% | 1012 hPa | 0 mm | - | - | - |
| 1777652645 | 23.33° C | 49% | 1013 hPa | 0 mm | - | - | - |
| 1777652045 | 23.33° C | 49% | 1013 hPa | 0 mm | - | - | - |
| 1777651444 | 23.33° C | 49% | 1013 hPa | 0 mm | - | - | - |
| 1777650843 | 23.33° C | 48% | 1013 hPa | 0 mm | - | - | - |
| 1777650243 | 22.78° C | 51% | 1013 hPa | 0 mm | - | - | - |
| 1777649642 | 21.67° C | 58% | 1014 hPa | 0 mm | - | - | - |
| 1777649041 | 21.67° C | 58% | 1014 hPa | 0 mm | - | - | - |
| 1777648441 | 21.67° C | 59% | 1014 hPa | 0 mm | - | - | - |
| 1777647840 | 21.67° C | 59% | 1014 hPa | 0 mm | - | - | - |
| 1777647240 | 21.11° C | 58% | 1013 hPa | 0 mm | - | - | - |
| 1777646639 | 19.44° C | 66% | 1013 hPa | 0 mm | - | - | - |
| 1777646038 | 19.44° C | 66% | 1013 hPa | 0 mm | - | - | - |
| 1777645438 | 19.44° C | 66% | 1014 hPa | 0 mm | - | - | - |
| 1777644837 | 19.44° C | 66% | 1014 hPa | 0 mm | - | - | - |
| 1777644236 | 19.44° C | 66% | 1014 hPa | 0 mm | - | - | - |
| 1777643636 | 19.44° C | 66% | 1014 hPa | 0 mm | - | - | - |
| 1777643035 | 18.33° C | 70% | 1014 hPa | 0 mm | - | - | - |
| 1777642435 | 18.33° C | 70% | 1014 hPa | 0 mm | - | - | - |
| 1777641834 | 18.33° C | 70% | 1014 hPa | 0 mm | - | - | - |
| 1777641233 | 18.33° C | 70% | 1014 hPa | 0 mm | - | - | - |
| 1777640633 | 18.33° C | 70% | 1014 hPa | 0 mm | - | - | - |
| 1777640032 | 18.33° C | 70% | 1013 hPa | 0 mm | - | - | - |
* Rain latest hour (hover to see other rain measurements)
** Current wind speed in m/s (hover to see current wind gust speed)